sensor_id;sensor_type;location;lat;lon;timestamp;pressure;altitude;pressure_sealevel;temperature;humidity
68489;BME280;55481;48.764;8.936;2023-07-29T00:02:06;96560;;;17;79
68489;BME280;55481;48.764;8.936;2023-07-29T00:04:44;96560;;;17;79
68489;BME280;55481;48.764;8.936;2023-07-29T00:07:15;96560;;;17;79
68489;BME280;55481;48.764;8.936;2023-07-29T00:09:46;96570;;;17;79.5
68489;BME280;55481;48.764;8.936;2023-07-29T00:12:14;96560;;;17.1;79
68489;BME280;55481;48.764;8.936;2023-07-29T00:14:40;96570;;;17;79.5
68489;BME280;55481;48.764;8.936;2023-07-29T00:17:11;96570;;;17.1;79
68489;BME280;55481;48.764;8.936;2023-07-29T00:27:15;96570;;;16.9;79.5
68489;BME280;55481;48.764;8.936;2023-07-29T00:32:29;96570;;;17;79.5
68489;BME280;55481;48.764;8.936;2023-07-29T00:34:59;96570;;;17;79.5
68489;BME280;55481;48.764;8.936;2023-07-29T00:37:29;96560;;;17;79.5
68489;BME280;55481;48.764;8.936;2023-07-29T00:42:24;96560;;;17;79.5
68489;BME280;55481;48.764;8.936;2023-07-29T00:44:54;96560;;;17;79
68489;BME280;55481;48.764;8.936;2023-07-29T00:47:25;96570;;;17;79
68489;BME280;55481;48.764;8.936;2023-07-29T00:49:56;96560;;;17;79
68489;BME280;55481;48.764;8.936;2023-07-29T00:52:34;96560;;;17;79
68489;BME280;55481;48.764;8.936;2023-07-29T01:00:23;96540;;;17;79.5
68489;BME280;55481;48.764;8.936;2023-07-29T01:02:36;96550;;;17.1;79
68489;BME280;55481;48.764;8.936;2023-07-29T01:05:06;96550;;;17.1;79
68489;BME280;55481;48.764;8.936;2023-07-29T01:10:40;96550;;;17;79
68489;BME280;55481;48.764;8.936;2023-07-29T01:17:36;96530;;;17.1;79
68489;BME280;55481;48.764;8.936;2023-07-29T01:20:13;96540;;;17;79
68489;BME280;55481;48.764;8.936;2023-07-29T01:22:41;96530;;;17.1;79
68489;BME280;55481;48.764;8.936;2023-07-29T01:25:12;96540;;;17.2;79
68489;BME280;55481;48.764;8.936;2023-07-29T01:27:35;96540;;;17.2;78.5
68489;BME280;55481;48.764;8.936;2023-07-29T01:30:06;96540;;;17.2;79
68489;BME280;55481;48.764;8.936;2023-07-29T01:33:41;96530;;;17.2;78.5
68489;BME280;55481;48.764;8.936;2023-07-29T01:35:19;96530;;;17.3;79
68489;BME280;55481;48.764;8.936;2023-07-29T01:40:10;96530;;;17.4;78.5
68489;BME280;55481;48.764;8.936;2023-07-29T01:42:41;96520;;;17.4;78.5
68489;BME280;55481;48.764;8.936;2023-07-29T01:45:12;96520;;;17.3;79
68489;BME280;55481;48.764;8.936;2023-07-29T01:47:42;96520;;;17.2;79
68489;BME280;55481;48.764;8.936;2023-07-29T01:50:13;96510;;;17.2;79
68489;BME280;55481;48.764;8.936;2023-07-29T01:52:44;96510;;;17.1;79
68489;BME280;55481;48.764;8.936;2023-07-29T01:55:15;96510;;;17.1;79
68489;BME280;55481;48.764;8.936;2023-07-29T01:57:46;96510;;;17.1;79
68489;BME280;55481;48.764;8.936;2023-07-29T02:00:17;96510;;;17;79
68489;BME280;55481;48.764;8.936;2023-07-29T02:02:47;96500;;;17;79.5
68489;BME280;55481;48.764;8.936;2023-07-29T02:05:19;96500;;;16.9;79.5
68489;BME280;55481;48.764;8.936;2023-07-29T02:07:49;96500;;;16.9;79.5
68489;BME280;55481;48.764;8.936;2023-07-29T02:10:20;96500;;;16.9;79.5
68489;BME280;55481;48.764;8.936;2023-07-29T02:12:44;96490;;;16.9;79.5
68489;BME280;55481;48.764;8.936;2023-07-29T02:22:48;96500;;;17;79.5
68489;BME280;55481;48.764;8.936;2023-07-29T02:25:18;96500;;;17;79.5
68489;BME280;55481;48.764;8.936;2023-07-29T02:27:48;96500;;;17;79.5
68489;BME280;55481;48.764;8.936;2023-07-29T02:30:20;96490;;;17.1;79.5
68489;BME280;55481;48.764;8.936;2023-07-29T02:32:51;96490;;;17.1;79.5
68489;BME280;55481;48.764;8.936;2023-07-29T02:35:27;96490;;;17.1;79.5
68489;BME280;55481;48.764;8.936;2023-07-29T02:37:59;96490;;;17.2;79
68489;BME280;55481;48.764;8.936;2023-07-29T02:40:29;96490;;;17.2;79
68489;BME280;55481;48.764;8.936;2023-07-29T02:42:53;96500;;;17.2;79
68489;BME280;55481;48.764;8.936;2023-07-29T02:50:26;96500;;;17.3;79
68489;BME280;55481;48.764;8.936;2023-07-29T02:52:56;96490;;;17.3;79
68489;BME280;55481;48.764;8.936;2023-07-29T02:55:27;96490;;;17.3;79
68489;BME280;55481;48.764;8.936;2023-07-29T02:57:58;96480;;;17.3;79
68489;BME280;55481;48.764;8.936;2023-07-29T03:00:30;96480;;;17.2;79
68489;BME280;55481;48.764;8.936;2023-07-29T03:03:06;96480;;;17.2;79.5
68489;BME280;55481;48.764;8.936;2023-07-29T03:05:37;96480;;;17.3;79
68489;BME280;55481;48.764;8.936;2023-07-29T03:10:34;96460;;;17.2;79.5
68489;BME280;55481;48.764;8.936;2023-07-29T03:20:35;96470;;;17.2;79.5
68489;BME280;55481;48.764;8.936;2023-07-29T03:23:07;96470;;;17.2;79.5
68489;BME280;55481;48.764;8.936;2023-07-29T03:25:37;96460;;;17.2;79.5
68489;BME280;55481;48.764;8.936;2023-07-29T03:28:08;96460;;;17.2;79.5
68489;BME280;55481;48.764;8.936;2023-07-29T03:30:45;96460;;;17.3;79.5
68489;BME280;55481;48.764;8.936;2023-07-29T03:33:16;96460;;;17.3;79.5
68489;BME280;55481;48.764;8.936;2023-07-29T03:38:12;96460;;;17.3;79.5
68489;BME280;55481;48.764;8.936;2023-07-29T03:40:42;96460;;;17.3;79.5
68489;BME280;55481;48.764;8.936;2023-07-29T03:53:16;96470;;;17.1;80
68489;BME280;55481;48.764;8.936;2023-07-29T03:55:47;96470;;;17.1;80
68489;BME280;55481;48.764;8.936;2023-07-29T03:58:17;96460;;;17.1;80
68489;BME280;55481;48.764;8.936;2023-07-29T04:00:49;96450;;;17.1;80
68489;BME280;55481;48.764;8.936;2023-07-29T04:03:19;96460;;;17.1;80
68489;BME280;55481;48.764;8.936;2023-07-29T04:06:03;96460;;;17;80
68489;BME280;55481;48.764;8.936;2023-07-29T04:08:34;96450;;;17;80
68489;BME280;55481;48.764;8.936;2023-07-29T04:13:34;96460;;;17.1;79.5
68489;BME280;55481;48.764;8.936;2023-07-29T04:16:05;96470;;;17;80
68489;BME280;55481;48.764;8.936;2023-07-29T04:18:29;96480;;;17;80
68489;BME280;55481;48.764;8.936;2023-07-29T04:21:00;96480;;;16.9;80
68489;BME280;55481;48.764;8.936;2023-07-29T04:23:31;96460;;;16.8;80.5
68489;BME280;55481;48.764;8.936;2023-07-29T04:26:02;96470;;;16.7;80.5
68489;BME280;55481;48.764;8.936;2023-07-29T04:33:29;96490;;;16.6;80
68489;BME280;55481;48.764;8.936;2023-07-29T04:35:59;96490;;;16.6;80
68489;BME280;55481;48.764;8.936;2023-07-29T04:38:31;96490;;;16.6;80
68489;BME280;55481;48.764;8.936;2023-07-29T04:41:00;96500;;;16.5;80
68489;BME280;55481;48.764;8.936;2023-07-29T04:43:32;96500;;;16.5;80
68489;BME280;55481;48.764;8.936;2023-07-29T04:46:04;96490;;;16.6;80
68489;BME280;55481;48.764;8.936;2023-07-29T04:48:33;96490;;;16.6;80
68489;BME280;55481;48.764;8.936;2023-07-29T04:51:03;96470;;;16.6;80
68489;BME280;55481;48.764;8.936;2023-07-29T04:53:36;96460;;;16.6;80
68489;BME280;55481;48.764;8.936;2023-07-29T04:58:36;96470;;;16.7;79.5
68489;BME280;55481;48.764;8.936;2023-07-29T05:01:06;96460;;;16.8;79
68489;BME280;55481;48.764;8.936;2023-07-29T05:03:46;96460;;;16.9;79
68489;BME280;55481;48.764;8.936;2023-07-29T05:08:39;96460;;;17;79
68489;BME280;55481;48.764;8.936;2023-07-29T05:11:22;96460;;;17.1;79
68489;BME280;55481;48.764;8.936;2023-07-29T05:14:00;96450;;;17.1;79
68489;BME280;55481;48.764;8.936;2023-07-29T05:16:20;96450;;;17.1;79
68489;BME280;55481;48.764;8.936;2023-07-29T05:18:54;96460;;;17.1;79
68489;BME280;55481;48.764;8.936;2023-07-29T05:21:31;96460;;;17.1;79
68489;BME280;55481;48.764;8.936;2023-07-29T05:23:55;96460;;;17.1;79
68489;BME280;55481;48.764;8.936;2023-07-29T05:31:24;96460;;;17.3;79
68489;BME280;55481;48.764;8.936;2023-07-29T05:33:55;96470;;;17.4;79
68489;BME280;55481;48.764;8.936;2023-07-29T05:36:26;96470;;;17.4;79
68489;BME280;55481;48.764;8.936;2023-07-29T05:41:34;96470;;;17.6;78.5
68489;BME280;55481;48.764;8.936;2023-07-29T05:44:05;96470;;;17.7;78.5
68489;BME280;55481;48.764;8.936;2023-07-29T05:48:59;96450;;;17.8;78.5
68489;BME280;55481;48.764;8.936;2023-07-29T05:51:37;96450;;;17.9;78.5
68489;BME280;55481;48.764;8.936;2023-07-29T05:54:02;96450;;;17.9;78.5
68489;BME280;55481;48.764;8.936;2023-07-29T05:56:33;96450;;;17.9;78.5
68489;BME280;55481;48.764;8.936;2023-07-29T05:59:09;96450;;;18;78.5
68489;BME280;55481;48.764;8.936;2023-07-29T06:01:34;96450;;;18;78.5
68489;BME280;55481;48.764;8.936;2023-07-29T06:04:05;96450;;;18.1;78.5
68489;BME280;55481;48.764;8.936;2023-07-29T06:06:36;96450;;;18.2;78.5
68489;BME280;55481;48.764;8.936;2023-07-29T06:11:31;96440;;;18.3;78.5
68489;BME280;55481;48.764;8.936;2023-07-29T06:14:03;96450;;;18.3;78.5
68489;BME280;55481;48.764;8.936;2023-07-29T06:16:32;96450;;;18.4;78.5
68489;BME280;55481;48.764;8.936;2023-07-29T06:19:03;96450;;;18.5;78.5
68489;BME280;55481;48.764;8.936;2023-07-29T06:21:34;96450;;;18.4;78.5
68489;BME280;55481;48.764;8.936;2023-07-29T06:31:38;96480;;;18.4;79
68489;BME280;55481;48.764;8.936;2023-07-29T06:36:45;96480;;;18.4;79
68489;BME280;55481;48.764;8.936;2023-07-29T06:39:17;96480;;;18.5;79
68489;BME280;55481;48.764;8.936;2023-07-29T06:44:10;96480;;;18.5;78.5
68489;BME280;55481;48.764;8.936;2023-07-29T06:46:41;96490;;;18.5;78.5
68489;BME280;55481;48.764;8.936;2023-07-29T06:56:44;96500;;;18.5;79
68489;BME280;55481;48.764;8.936;2023-07-29T06:59:15;96510;;;18.5;79
68489;BME280;55481;48.764;8.936;2023-07-29T07:01:46;96500;;;18.6;79
68489;BME280;55481;48.764;8.936;2023-07-29T07:04:23;96500;;;18.6;78.5
68489;BME280;55481;48.764;8.936;2023-07-29T07:06:54;96500;;;18.6;79
68489;BME280;55481;48.764;8.936;2023-07-29T07:11:49;96490;;;18.5;79
68489;BME280;55481;48.764;8.936;2023-07-29T07:14:20;96490;;;18.5;79
68489;BME280;55481;48.764;8.936;2023-07-29T07:16:50;96470;;;18.5;79
68489;BME280;55481;48.764;8.936;2023-07-29T07:21:52;96490;;;18.7;78.5
68489;BME280;55481;48.764;8.936;2023-07-29T07:24:23;96490;;;18.8;78.5
68489;BME280;55481;48.764;8.936;2023-07-29T07:29:30;96510;;;18.9;78.5
68489;BME280;55481;48.764;8.936;2023-07-29T07:34:32;96500;;;19.1;78.5
68489;BME280;55481;48.764;8.936;2023-07-29T07:37:02;96500;;;19.1;78.5
68489;BME280;55481;48.764;8.936;2023-07-29T07:39:33;96500;;;19.1;78.5
68489;BME280;55481;48.764;8.936;2023-07-29T07:41:57;96490;;;19.2;78.5
68489;BME280;55481;48.764;8.936;2023-07-29T07:49:29;96480;;;20.6;75
68489;BME280;55481;48.764;8.936;2023-07-29T07:52:01;96470;;;20.8;75
68489;BME280;55481;48.764;8.936;2023-07-29T07:54:31;96480;;;21.2;74.5
68489;BME280;55481;48.764;8.936;2023-07-29T07:57:02;96480;;;21.3;74
68489;BME280;55481;48.764;8.936;2023-07-29T08:02:03;96490;;;20.7;77
68489;BME280;55481;48.764;8.936;2023-07-29T08:04:34;96490;;;20.8;76.5
68489;BME280;55481;48.764;8.936;2023-07-29T08:07:05;96500;;;20.9;76.5
68489;BME280;55481;48.764;8.936;2023-07-29T08:09:35;96510;;;20.8;77
68489;BME280;55481;48.764;8.936;2023-07-29T08:17:08;96520;;;20.4;78.5
68489;BME280;55481;48.764;8.936;2023-07-29T08:19:39;96520;;;20.3;78.5
68489;BME280;55481;48.764;8.936;2023-07-29T08:22:09;96530;;;20.4;78.5
68489;BME280;55481;48.764;8.936;2023-07-29T08:27:17;96520;;;20.7;77.5
68489;BME280;55481;48.764;8.936;2023-07-29T08:29:54;96520;;;20.9;77.5
68489;BME280;55481;48.764;8.936;2023-07-29T08:32:19;96520;;;21.1;77
68489;BME280;55481;48.764;8.936;2023-07-29T08:34:50;96520;;;21.4;76.5
68489;BME280;55481;48.764;8.936;2023-07-29T08:37:22;96520;;;21.8;75.5
68489;BME280;55481;48.764;8.936;2023-07-29T08:39:52;96520;;;22.4;74
68489;BME280;55481;48.764;8.936;2023-07-29T08:42:31;96510;;;22.7;73.5
68489;BME280;55481;48.764;8.936;2023-07-29T08:44:54;96520;;;22.3;75
68489;BME280;55481;48.764;8.936;2023-07-29T08:47:25;96520;;;22.1;76
68489;BME280;55481;48.764;8.936;2023-07-29T08:50:03;96520;;;21.8;77
68489;BME280;55481;48.764;8.936;2023-07-29T08:57:48;96510;;;23.4;73.5
68489;BME280;55481;48.764;8.936;2023-07-29T09:00:08;96510;;;23;74.5
68489;BME280;55481;48.764;8.936;2023-07-29T09:02:35;96510;;;22.6;76
68489;BME280;55481;48.764;8.936;2023-07-29T09:05:08;96510;;;22.6;76
68489;BME280;55481;48.764;8.936;2023-07-29T09:07:36;96510;;;22.4;77
68489;BME280;55481;48.764;8.936;2023-07-29T09:10:08;96500;;;22.5;76.5
68489;BME280;55481;48.764;8.936;2023-07-29T09:12:36;96500;;;22.4;77
68489;BME280;55481;48.764;8.936;2023-07-29T09:15:00;96500;;;22.7;76.5
68489;BME280;55481;48.764;8.936;2023-07-29T09:17:40;96500;;;22.5;76.5
68489;BME280;55481;48.764;8.936;2023-07-29T09:22:33;96490;;;22.6;76.5
68489;BME280;55481;48.764;8.936;2023-07-29T09:25:05;96490;;;22.7;76.5
68489;BME280;55481;48.764;8.936;2023-07-29T09:27:38;96490;;;22.9;76
68489;BME280;55481;48.764;8.936;2023-07-29T09:32:38;96490;;;22.8;76.5
68489;BME280;55481;48.764;8.936;2023-07-29T09:37:45;96500;;;22.6;77
68489;BME280;55481;48.764;8.936;2023-07-29T09:40:15;96500;;;22.7;77
68489;BME280;55481;48.764;8.936;2023-07-29T09:45:19;96500;;;22.7;77
68489;BME280;55481;48.764;8.936;2023-07-29T09:47:47;96500;;;23;76.5
68489;BME280;55481;48.764;8.936;2023-07-29T09:50:16;96490;;;24.1;74
68489;BME280;55481;48.764;8.936;2023-07-29T09:52:47;96490;;;24.7;72.5
68489;BME280;55481;48.764;8.936;2023-07-29T09:55:21;96500;;;24.8;72.5
68489;BME280;55481;48.764;8.936;2023-07-29T09:57:46;96490;;;24.6;73.5
68489;BME280;55481;48.764;8.936;2023-07-29T10:00:16;96490;;;24.4;74
68489;BME280;55481;48.764;8.936;2023-07-29T10:02:48;96500;;;23.8;75.5
68489;BME280;55481;48.764;8.936;2023-07-29T10:05:20;96500;;;23.3;77
68489;BME280;55481;48.764;8.936;2023-07-29T10:08:01;96500;;;22.8;78.5
68489;BME280;55481;48.764;8.936;2023-07-29T10:10:30;96510;;;22.8;78.5
68489;BME280;55481;48.764;8.936;2023-07-29T10:12:48;96510;;;22.7;78
68489;BME280;55481;48.764;8.936;2023-07-29T10:17:42;96510;;;22.4;78.5
68489;BME280;55481;48.764;8.936;2023-07-29T10:20:13;96520;;;22.3;78.5
68489;BME280;55481;48.764;8.936;2023-07-29T10:22:45;96520;;;22.2;78.5
68489;BME280;55481;48.764;8.936;2023-07-29T10:25:16;96530;;;21.8;79
68489;BME280;55481;48.764;8.936;2023-07-29T10:32:41;96550;;;21.4;79
68489;BME280;55481;48.764;8.936;2023-07-29T10:35:12;96530;;;21.7;79
68489;BME280;55481;48.764;8.936;2023-07-29T10:37:45;96540;;;22.1;77.5
68489;BME280;55481;48.764;8.936;2023-07-29T10:40:13;96530;;;22.2;77
68489;BME280;55481;48.764;8.936;2023-07-29T10:43:00;96530;;;22.4;77
68489;BME280;55481;48.764;8.936;2023-07-29T10:45:18;96520;;;22.5;77
68489;BME280;55481;48.764;8.936;2023-07-29T10:47:59;96510;;;22.8;75.5
68489;BME280;55481;48.764;8.936;2023-07-29T10:50:23;96500;;;23;76
68489;BME280;55481;48.764;8.936;2023-07-29T10:52:54;96500;;;22.9;76
68489;BME280;55481;48.764;8.936;2023-07-29T10:55:26;96510;;;23;76
68489;BME280;55481;48.764;8.936;2023-07-29T10:58:26;96510;;;23.1;76
68489;BME280;55481;48.764;8.936;2023-07-29T11:00:33;96510;;;23.6;75
68489;BME280;55481;48.764;8.936;2023-07-29T11:05:22;96510;;;23.7;75
68489;BME280;55481;48.764;8.936;2023-07-29T11:07:52;96520;;;23.6;75
68489;BME280;55481;48.764;8.936;2023-07-29T11:10:23;96520;;;23.6;75.5
68489;BME280;55481;48.764;8.936;2023-07-29T11:12:54;96520;;;23.5;76
68489;BME280;55481;48.764;8.936;2023-07-29T11:15:26;96520;;;23.4;76
68489;BME280;55481;48.764;8.936;2023-07-29T11:17:56;96510;;;23.4;76
68489;BME280;55481;48.764;8.936;2023-07-29T11:20:27;96510;;;23.4;76.5
68489;BME280;55481;48.764;8.936;2023-07-29T11:22:59;96510;;;23.4;76.5
68489;BME280;55481;48.764;8.936;2023-07-29T11:33:20;96490;;;24.9;73
68489;BME280;55481;48.764;8.936;2023-07-29T11:35:43;96490;;;24.7;73.5
68489;BME280;55481;48.764;8.936;2023-07-29T11:40:37;96500;;;24.6;74
68489;BME280;55481;48.764;8.936;2023-07-29T11:43:08;96490;;;25;73.5
68489;BME280;55481;48.764;8.936;2023-07-29T11:48:02;96490;;;25.2;73.5
68489;BME280;55481;48.764;8.936;2023-07-29T11:58:05;96480;;;26.4;71.5
68489;BME280;55481;48.764;8.936;2023-07-29T12:00:37;96490;;;26.4;72
68489;BME280;55481;48.764;8.936;2023-07-29T12:03:08;96480;;;26.5;72
68489;BME280;55481;48.764;8.936;2023-07-29T12:05:38;96480;;;26.6;72
68489;BME280;55481;48.764;8.936;2023-07-29T12:10:46;96470;;;27.1;71
68489;BME280;55481;48.764;8.936;2023-07-29T12:13:16;96480;;;26.9;72
68489;BME280;55481;48.764;8.936;2023-07-29T12:18:12;96480;;;27.2;71.5
68489;BME280;55481;48.764;8.936;2023-07-29T12:25:45;96470;;;28;70
68489;BME280;55481;48.764;8.936;2023-07-29T12:28:15;96470;;;27.7;71
68489;BME280;55481;48.764;8.936;2023-07-29T12:30:45;96470;;;27.6;71.5
68489;BME280;55481;48.764;8.936;2023-07-29T12:33:35;96470;;;27.7;71.5
68489;BME280;55481;48.764;8.936;2023-07-29T12:35:47;96470;;;28.1;70.5
68489;BME280;55481;48.764;8.936;2023-07-29T12:38:26;96470;;;28.3;70
68489;BME280;55481;48.764;8.936;2023-07-29T12:41:02;96470;;;27.6;72
68489;BME280;55481;48.764;8.936;2023-07-29T12:43:28;96460;;;28.8;69
68489;BME280;55481;48.764;8.936;2023-07-29T12:45:57;96460;;;29.4;67.5
68489;BME280;55481;48.764;8.936;2023-07-29T12:48:34;96470;;;29.3;68
68489;BME280;55481;48.764;8.936;2023-07-29T12:51:11;96470;;;28.7;69.5
68489;BME280;55481;48.764;8.936;2023-07-29T12:55:59;96470;;;28.7;70
68489;BME280;55481;48.764;8.936;2023-07-29T12:58:31;96470;;;28.1;71
68489;BME280;55481;48.764;8.936;2023-07-29T13:03:28;96460;;;28.6;70.5
68489;BME280;55481;48.764;8.936;2023-07-29T13:05:55;96460;;;28.9;69.5
68489;BME280;55481;48.764;8.936;2023-07-29T13:08:26;96460;;;29.5;68
68489;BME280;55481;48.764;8.936;2023-07-29T13:10:58;96460;;;29.7;67.5
68489;BME280;55481;48.764;8.936;2023-07-29T13:21:00;96470;;;28.1;71.5
68489;BME280;55481;48.764;8.936;2023-07-29T13:23:38;96480;;;28.1;71
68489;BME280;55481;48.764;8.936;2023-07-29T13:26:09;96480;;;27.1;73.5
68489;BME280;55481;48.764;8.936;2023-07-29T13:28:39;96480;;;26.7;74.5
68489;BME280;55481;48.764;8.936;2023-07-29T13:31:10;96490;;;26.4;74.5
68489;BME280;55481;48.764;8.936;2023-07-29T13:33:41;96480;;;26.3;74.5
68489;BME280;55481;48.764;8.936;2023-07-29T13:38:35;96470;;;25.4;75.5
68489;BME280;55481;48.764;8.936;2023-07-29T13:46:08;96460;;;25.3;75.5
68489;BME280;55481;48.764;8.936;2023-07-29T13:48:39;96470;;;26;73
68489;BME280;55481;48.764;8.936;2023-07-29T13:51:09;96470;;;26.4;72
68489;BME280;55481;48.764;8.936;2023-07-29T13:56:17;96470;;;27.4;69.5
68489;BME280;55481;48.764;8.936;2023-07-29T13:58:48;96480;;;26.8;70.5
68489;BME280;55481;48.764;8.936;2023-07-29T14:03:43;96480;;;27.8;69
68489;BME280;55481;48.764;8.936;2023-07-29T14:06:14;96480;;;28.2;67.5
68489;BME280;55481;48.764;8.936;2023-07-29T14:18:47;96500;;;27;70
68489;BME280;55481;48.764;8.936;2023-07-29T14:24:02;96500;;;25.5;74
68489;BME280;55481;48.764;8.936;2023-07-29T14:26:32;96500;;;25.1;75
68489;BME280;55481;48.764;8.936;2023-07-29T14:28:57;96500;;;24.7;75.5
68489;BME280;55481;48.764;8.936;2023-07-29T14:31:26;96500;;;24.4;76
68489;BME280;55481;48.764;8.936;2023-07-29T14:33:59;96510;;;24.1;76
68489;BME280;55481;48.764;8.936;2023-07-29T14:36:29;96510;;;24.2;75.5
68489;BME280;55481;48.764;8.936;2023-07-29T14:39:00;96490;;;24.5;74.5
68489;BME280;55481;48.764;8.936;2023-07-29T14:41:37;96490;;;24.9;73.5
68489;BME280;55481;48.764;8.936;2023-07-29T14:44:08;96490;;;24.9;73
68489;BME280;55481;48.764;8.936;2023-07-29T14:49:04;96500;;;24.4;74
68489;BME280;55481;48.764;8.936;2023-07-29T14:51:34;96490;;;24.1;74.5
68489;BME280;55481;48.764;8.936;2023-07-29T14:54:07;96500;;;24.2;74.5
68489;BME280;55481;48.764;8.936;2023-07-29T14:56:36;96490;;;24.8;73
68489;BME280;55481;48.764;8.936;2023-07-29T14:59:07;96490;;;25;72
68489;BME280;55481;48.764;8.936;2023-07-29T15:01:38;96490;;;24.9;72.5
68489;BME280;55481;48.764;8.936;2023-07-29T15:04:09;96490;;;25.2;72
68489;BME280;55481;48.764;8.936;2023-07-29T15:06:40;96490;;;25.4;71.5
68489;BME280;55481;48.764;8.936;2023-07-29T15:09:11;96490;;;25.3;71.5
68489;BME280;55481;48.764;8.936;2023-07-29T15:11:48;96490;;;25.3;71.5
68489;BME280;55481;48.764;8.936;2023-07-29T15:16:44;96490;;;25.5;71
68489;BME280;55481;48.764;8.936;2023-07-29T15:19:15;96490;;;25.6;71
68489;BME280;55481;48.764;8.936;2023-07-29T15:21:47;96480;;;25.8;70.5
68489;BME280;55481;48.764;8.936;2023-07-29T15:24:17;96480;;;25.9;70.5
68489;BME280;55481;48.764;8.936;2023-07-29T15:26:48;96480;;;25.5;71.5
68489;BME280;55481;48.764;8.936;2023-07-29T15:29:19;96480;;;25.6;71.5
68489;BME280;55481;48.764;8.936;2023-07-29T15:31:50;96480;;;26;70.5
68489;BME280;55481;48.764;8.936;2023-07-29T15:34:20;96490;;;25.6;71
68489;BME280;55481;48.764;8.936;2023-07-29T15:36:51;96490;;;26.1;70.5
68489;BME280;55481;48.764;8.936;2023-07-29T15:39:22;96480;;;26.5;69
68489;BME280;55481;48.764;8.936;2023-07-29T15:41:59;96480;;;26.3;69.5
68489;BME280;55481;48.764;8.936;2023-07-29T15:44:29;96480;;;25.8;71
68489;BME280;55481;48.764;8.936;2023-07-29T15:49:24;96480;;;25.7;71.5
68489;BME280;55481;48.764;8.936;2023-07-29T15:51:55;96480;;;25.8;71
68489;BME280;55481;48.764;8.936;2023-07-29T15:54:26;96480;;;25.5;72
68489;BME280;55481;48.764;8.936;2023-07-29T15:56:57;96470;;;25.5;71.5
68489;BME280;55481;48.764;8.936;2023-07-29T15:59:28;96470;;;25.5;71.5
68489;BME280;55481;48.764;8.936;2023-07-29T16:02:06;96470;;;25.4;71.5
68489;BME280;55481;48.764;8.936;2023-07-29T16:04:36;96460;;;25.2;72
68489;BME280;55481;48.764;8.936;2023-07-29T16:07:01;96460;;;25.2;72
68489;BME280;55481;48.764;8.936;2023-07-29T16:09:32;96460;;;25.2;72
68489;BME280;55481;48.764;8.936;2023-07-29T16:12:03;96460;;;25;72
68489;BME280;55481;48.764;8.936;2023-07-29T16:14:34;96460;;;25.1;72
68489;BME280;55481;48.764;8.936;2023-07-29T16:17:11;96460;;;24.9;72
68489;BME280;55481;48.764;8.936;2023-07-29T16:19:51;96460;;;25;72
68489;BME280;55481;48.764;8.936;2023-07-29T16:22:06;96460;;;25.1;71.5
68489;BME280;55481;48.764;8.936;2023-07-29T16:24:35;96470;;;25;71.5
68489;BME280;55481;48.764;8.936;2023-07-29T16:34:34;96460;;;25;71.5
68489;BME280;55481;48.764;8.936;2023-07-29T16:37:05;96460;;;25;71
68489;BME280;55481;48.764;8.936;2023-07-29T16:39:36;96460;;;24.9;71.5
68489;BME280;55481;48.764;8.936;2023-07-29T16:42:06;96460;;;24.7;71.5
68489;BME280;55481;48.764;8.936;2023-07-29T16:44:36;96450;;;24.7;71.5
68489;BME280;55481;48.764;8.936;2023-07-29T16:47:14;96460;;;24.7;71.5
68489;BME280;55481;48.764;8.936;2023-07-29T16:49:45;96460;;;24.7;71.5
68489;BME280;55481;48.764;8.936;2023-07-29T16:52:16;96460;;;24.7;71.5
68489;BME280;55481;48.764;8.936;2023-07-29T16:54:47;96460;;;24.6;71.5
68489;BME280;55481;48.764;8.936;2023-07-29T16:57:24;96470;;;24.6;71.5
68489;BME280;55481;48.764;8.936;2023-07-29T16:59:55;96470;;;24.5;72
68489;BME280;55481;48.764;8.936;2023-07-29T17:02:20;96460;;;24.3;72.5
68489;BME280;55481;48.764;8.936;2023-07-29T17:04:51;96480;;;24.2;73
68489;BME280;55481;48.764;8.936;2023-07-29T17:07:22;96480;;;24.1;73
68489;BME280;55481;48.764;8.936;2023-07-29T17:12:17;96490;;;23.9;73
68489;BME280;55481;48.764;8.936;2023-07-29T17:14:48;96490;;;24;73
68489;BME280;55481;48.764;8.936;2023-07-29T17:17:18;96500;;;23.9;73
68489;BME280;55481;48.764;8.936;2023-07-29T17:24:51;96520;;;23.2;74
68489;BME280;55481;48.764;8.936;2023-07-29T17:27:22;96530;;;22.8;75
68489;BME280;55481;48.764;8.936;2023-07-29T17:32:36;96530;;;22;76.5
68489;BME280;55481;48.764;8.936;2023-07-29T17:35:06;96530;;;22;76
68489;BME280;55481;48.764;8.936;2023-07-29T17:37:30;96540;;;22;76
68489;BME280;55481;48.764;8.936;2023-07-29T17:40:01;96550;;;21.8;76
68489;BME280;55481;48.764;8.936;2023-07-29T17:42:32;96540;;;21.8;76
68489;BME280;55481;48.764;8.936;2023-07-29T17:45:10;96540;;;21.7;76
68489;BME280;55481;48.764;8.936;2023-07-29T17:47:35;96540;;;21.6;76
68489;BME280;55481;48.764;8.936;2023-07-29T17:50:11;96520;;;21.5;76
68489;BME280;55481;48.764;8.936;2023-07-29T17:52:42;96520;;;21.5;75.5
68489;BME280;55481;48.764;8.936;2023-07-29T17:57:38;96510;;;21.7;74.5
68489;BME280;55481;48.764;8.936;2023-07-29T18:00:09;96510;;;21.8;74.5
68489;BME280;55481;48.764;8.936;2023-07-29T18:02:39;96500;;;21.9;74
68489;BME280;55481;48.764;8.936;2023-07-29T18:05:16;96500;;;22;73.5
68489;BME280;55481;48.764;8.936;2023-07-29T18:07:42;96500;;;22;73.5
68489;BME280;55481;48.764;8.936;2023-07-29T18:12:43;96510;;;21.9;74
68489;BME280;55481;48.764;8.936;2023-07-29T18:15:15;96520;;;21.8;74
68489;BME280;55481;48.764;8.936;2023-07-29T18:17:45;96530;;;21.5;75
68489;BME280;55481;48.764;8.936;2023-07-29T18:20:23;96530;;;21.3;75
68489;BME280;55481;48.764;8.936;2023-07-29T18:25:18;96540;;;20.9;76
68489;BME280;55481;48.764;8.936;2023-07-29T18:27:56;96550;;;20.8;76
68489;BME280;55481;48.764;8.936;2023-07-29T18:30:25;96550;;;20.7;76
68489;BME280;55481;48.764;8.936;2023-07-29T18:32:57;96550;;;20.7;76
68489;BME280;55481;48.764;8.936;2023-07-29T18:37:50;96550;;;20.6;76
68489;BME280;55481;48.764;8.936;2023-07-29T18:40:20;96550;;;20.6;75.5
68489;BME280;55481;48.764;8.936;2023-07-29T18:42:58;96550;;;20.5;76
68489;BME280;55481;48.764;8.936;2023-07-29T18:47:54;96560;;;20.4;75.5
68489;BME280;55481;48.764;8.936;2023-07-29T18:50:25;96560;;;20.3;76
68489;BME280;55481;48.764;8.936;2023-07-29T18:53:02;96560;;;20.2;76
68489;BME280;55481;48.764;8.936;2023-07-29T18:55:32;96560;;;20.1;76
68489;BME280;55481;48.764;8.936;2023-07-29T19:00:33;96560;;;20;76